Saturday, December 15, 2018, 1:55 PM EST
Back to Local

KAFN, Jaffrey Muni-silver Ranch

Location: Jaffrey, NH, United States Lat: 42.8
Local Time: 1:55 PM EST (18:55 GMT) Lon: -72
Time Zone: US/Eastern Elev: 1040 ft

Show me the last for .
Show Coded

Time T Td Feel RH Dir Speed Gust Alt SLP Vis Weather Sky Remarks
2018-12-15 12:52 48 35 - 60 - Calm - 30.14 30.17 10 CLR 6-hr Min Temp (1pm): 35.1°F
6-hr Max Temp (1pm): 48.9°F
2018-12-15 11:52 48 36 47 62 290° 3 - 30.14 30.17 10 CLR None
2018-12-15 10:52 47 39 43 73 190° 8 - 30.16 30.19 10 CLR None
2018-12-15 09:52 38 38 34 100 180° 5 - 30.17 30.21 10 CLR None
2018-12-15 08:52 37 37 33 100 190° 5 - 30.16 30.20 10 CLR None
2018-12-15 07:52 35 35 - 100 - Calm - 30.16 30.20 6 BR CLR None
2018-12-15 07:47 36 36 - 100 - Calm - 30.15 - 5 BR FEW001 None
2018-12-15 06:52 40 40 - 100 - Calm - 30.14 30.18 10 OVC048 6-hr Min Temp (7am): 39.9°F
6-hr Max Temp (7am): 42.1°F
2018-12-15 05:52 41 41 39 100 160° 3 - 30.12 30.16 10 CLR None
2018-12-15 04:52 41 40 37 95 170° 6 - 30.12 30.16 10 CLR None
2018-12-15 04:02 41 41 39 100 Variable 3 - 30.12 - 10 SCT006 None
2018-12-15 03:52 41 41 37 100 210° 6 - 30.12 30.16 10 BKN006 None
2018-12-15 02:52 42 42 38 100 Variable 6 - 30.14 30.18 10 OVC006 None
2018-12-15 02:36 42 42 37 100 220° 8 - 30.14 - 10 OVC006 None
2018-12-15 02:08 42 42 37 100 210° 8 - 30.13 - 10 OVC005 None
2018-12-15 01:52 42 42 37 100 230° 8 - 30.14 30.17 9 OVC004 None
2018-12-15 01:07 40 40 34 100 210° 8 - 30.14 - 4 BR OVC002 None
2018-12-15 00:52 40 40 34 100 200° 9 - 30.14 30.18 2 BR OVC002 6-hr Min Temp (1am): 39.0°F
6-hr Max Temp (1am): 41.0°F
2018-12-15 00:33 40 40 35 100 Variable 7 - 30.16 - 2 BR OVC002 None
2018-12-15 00:06 41 41 35 100 230° 9 - 30.16 - 1 BR OVC002 None
2018-12-14 23:52 40 40 31 100 Variable 7 17 30.16 30.20 2 BR OVC002 24-hr Min Temp (12am): 26.1°F
24-hr Max Temp (12am): 39.9°F
2018-12-14 22:52 40 40 31 100 210° 9 18 30.18 30.22 1 BR OVC002 None
2018-12-14 22:35 40 40 30 100 220° 8 21 30.19 - 1 BR OVC003 None
2018-12-14 22:23 40 40 34 100 220° 9 - 30.21 - 2 BR OVC003 None
2018-12-14 21:52 40 40 31 100 200° 8 17 30.21 30.25 5 BR OVC004 None
2018-12-14 21:37 40 39 34 96 210° 9 - 30.21 - 7 OVC005 None
2018-12-14 21:00 40 38 37 92 240° 5 - 30.22 - 10 OVC009 None
2018-12-14 20:52 40 38 38 92 210° 3 - 30.23 30.27 10 OVC010 None
2018-12-14 19:52 40 36 37 85 210° 5 - 30.25 30.30 10 OVC011 None
2018-12-14 19:12 40 35 38 82 190° 3 - 30.27 - 10 OVC013 None
2018-12-14 18:52 40 35 38 82 190° 3 - 30.28 30.33 10 OVC017 6-hr Min Temp (7pm): 36.0°F
6-hr Max Temp (7pm): 39.9°F
2018-12-14 17:52 40 34 37 79 180° 5 - 30.30 30.35 10 FEW017 OVC023 None
2018-12-14 16:52 39 32 34 75 180° 7 - 30.32 30.37 10 OVC022 None
2018-12-14 15:52 39 32 37 75 220° 3 - 30.35 30.40 10 BKN028 None
2018-12-14 14:52 40 31 37 69 210° 5 - 30.34 30.39 10 SCT030 OVC040 None

Support USWX by starting your Amazon purchase here.